Time,TemperatureF,DewpointF,PressureIn,WindDirection,WindDirectionDegrees,WindSpeedMPH,WindSpeedGustMPH,Humidity,HourlyPrecipIn,Conditions,Clouds,dailyrainin,SoftwareType,DateUTC
2013-01-29 00:00:00,36.3,36.3,29.64,North,359,13.0,16.0,100,0.00,,,0.00,VWS V14.01,2013-01-29 06:00:00,
2013-01-29 00:03:00,36.5,36.5,29.64,North,357,17.0,17.0,100,0.00,,,0.00,VWS V14.01,2013-01-29 06:03:00,
2013-01-29 00:08:00,36.5,36.5,29.64,North,359,6.0,17.0,100,0.00,,,0.00,VWS V14.01,2013-01-29 06:08:00,
2013-01-29 00:13:00,36.5,36.5,29.64,NNW,342,10.0,17.0,100,0.00,,,0.00,VWS V14.01,2013-01-29 06:13:00,
2013-01-29 00:15:00,36.0,36.0,29.62,North,353,5.0,19.0,100,0.00,,,0.00,VWS V14.01,2013-01-29 06:15:00,
2013-01-29 00:18:00,36.5,36.5,29.64,North,0,3.0,6.0,100,0.00,,,0.00,VWS V14.01,2013-01-29 06:18:00,
2013-01-29 00:23:00,36.5,36.5,29.64,North,349,1.0,11.0,100,0.00,,,0.00,VWS V14.01,2013-01-29 06:23:00,
2013-01-29 00:28:00,36.5,36.5,29.64,North,354,0.0,11.0,100,0.00,,,0.00,VWS V14.01,2013-01-29 06:28:00,
2013-01-29 00:30:00,36.0,36.0,29.63,North,357,4.0,13.0,100,0.00,,,0.00,VWS V14.01,2013-01-29 06:30:00,
2013-01-29 00:33:00,36.5,36.5,29.65,North,359,6.0,12.0,100,0.00,,,0.00,VWS V14.01,2013-01-29 06:33:00,
2013-01-29 00:38:00,36.5,36.5,29.65,North,357,4.0,14.0,100,0.00,,,0.00,VWS V14.01,2013-01-29 06:38:00,
2013-01-29 00:43:00,36.3,36.3,29.65,North,354,12.0,14.0,100,0.00,,,0.00,VWS V14.01,2013-01-29 06:43:00,
2013-01-29 00:45:00,36.0,36.0,29.62,North,359,11.0,13.0,100,0.00,,,0.00,VWS V14.01,2013-01-29 06:45:00,
2013-01-29 00:48:00,36.3,36.3,29.64,NNW,347,9.0,16.0,100,0.00,,,0.00,VWS V14.01,2013-01-29 06:48:00,
2013-01-29 00:53:00,36.5,36.5,29.64,North,359,7.0,16.0,100,0.00,,,0.00,VWS V14.01,2013-01-29 06:53:00,
2013-01-29 00:58:00,36.3,36.3,29.64,NNW,343,6.0,16.0,100,0.00,,,0.00,VWS V14.01,2013-01-29 06:58:00,
2013-01-29 01:00:00,36.0,36.0,29.64,North,353,2.0,13.0,100,0.00,,,0.00,VWS V14.01,2013-01-29 07:00:00,
2013-01-29 01:03:00,36.2,36.2,29.64,North,357,18.0,18.0,100,0.00,,,0.00,VWS V14.01,2013-01-29 07:03:00,
2013-01-29 01:08:00,36.2,36.2,29.64,North,4,14.0,18.0,100,0.00,,,0.00,VWS V14.01,2013-01-29 07:08:00,
2013-01-29 01:13:00,36.2,36.2,29.64,North,359,13.0,19.0,100,0.00,,,0.00,VWS V14.01,2013-01-29 07:13:00,
2013-01-29 01:15:00,36.0,36.0,29.67,North,357,1.0,6.0,100,0.00,,,0.00,VWS V14.01,2013-01-29 07:15:00,
2013-01-29 01:18:00,36.2,36.2,29.62,NNW,339,5.0,10.0,100,0.00,,,0.00,VWS V14.01,2013-01-29 07:18:00,
2013-01-29 01:23:00,36.2,36.2,29.62,North,3,7.0,12.0,100,0.00,,,0.00,VWS V14.01,2013-01-29 07:23:00,
2013-01-29 01:28:00,36.0,36.0,29.62,North,353,8.0,13.0,100,0.00,,,0.00,VWS V14.01,2013-01-29 07:28:00,
2013-01-29 01:30:00,35.9,35.9,29.65,North,353,5.0,7.0,100,0.00,,,0.00,VWS V14.01,2013-01-29 07:30:00,
2013-01-29 01:33:00,36.0,36.0,29.63,North,349,10.0,13.0,100,0.00,,,0.00,VWS V14.01,2013-01-29 07:33:00,
2013-01-29 01:38:00,36.0,36.0,29.63,North,350,7.0,13.0,100,0.00,,,0.00,VWS V14.01,2013-01-29 07:38:00,
2013-01-29 01:43:00,36.0,36.0,29.63,North,359,10.0,13.0,100,0.00,,,0.00,VWS V14.01,2013-01-29 07:43:00,
2013-01-29 01:45:00,35.9,35.9,29.64,North,356,16.0,16.0,100,0.00,,,0.00,VWS V14.01,2013-01-29 07:45:00,
2013-01-29 01:48:00,36.0,36.0,29.62,NW,322,2.0,13.0,100,0.00,,,0.00,VWS V14.01,2013-01-29 07:48:00,
2013-01-29 01:53:00,36.0,36.0,29.62,North,359,0.0,13.0,100,0.00,,,0.00,VWS V14.01,2013-01-29 07:53:00,
2013-01-29 01:58:00,36.0,36.0,29.62,North,350,2.0,13.0,100,0.00,,,0.00,VWS V14.01,2013-01-29 07:58:00,
2013-01-29 02:00:00,35.8,35.8,29.62,North,349,13.0,17.0,100,0.00,,,0.00,VWS V14.01,2013-01-29 08:00:00,
2013-01-29 02:03:00,35.9,35.9,29.64,North,359,1.0,6.0,100,0.00,,,0.00,VWS V14.01,2013-01-29 08:03:00,
2013-01-29 02:08:00,36.0,36.0,29.64,North,359,2.0,6.0,100,0.00,,,0.00,VWS V14.01,2013-01-29 08:08:00,
2013-01-29 02:13:00,36.0,36.0,29.64,North,357,0.0,6.0,100,0.00,,,0.00,VWS V14.01,2013-01-29 08:13:00,
2013-01-29 02:15:00,35.5,35.5,29.62,North,356,16.0,18.0,100,0.00,,,0.00,VWS V14.01,2013-01-29 08:15:00,
2013-01-29 02:18:00,36.0,36.0,29.67,North,357,2.0,3.0,100,0.00,,,0.00,VWS V14.01,2013-01-29 08:18:00,
2013-01-29 02:23:00,36.0,36.0,29.67,North,359,1.0,7.0,100,0.00,,,0.00,VWS V14.01,2013-01-29 08:23:00,
2013-01-29 02:28:00,35.9,35.9,29.67,North,359,1.0,7.0,100,0.00,,,0.00,VWS V14.01,2013-01-29 08:28:00,
2013-01-29 02:30:00,35.2,35.2,29.63,North,353,5.0,17.0,100,0.00,,,0.00,VWS V14.01,2013-01-29 08:30:00,
2013-01-29 02:33:00,35.9,35.9,29.65,NNW,337,5.0,10.0,100,0.00,,,0.00,VWS V14.01,2013-01-29 08:33:00,
2013-01-29 02:38:00,35.9,35.9,29.65,NNW,333,5.0,10.0,100,0.00,,,0.00,VWS V14.01,2013-01-29 08:38:00,
2013-01-29 02:43:00,35.9,35.9,29.65,North,357,9.0,12.0,100,0.00,,,0.00,VWS V14.01,2013-01-29 08:43:00,
2013-01-29 02:45:00,35.0,35.0,29.65,North,359,8.0,14.0,100,0.00,,,0.00,VWS V14.01,2013-01-29 08:45:00,
2013-01-29 02:48:00,35.9,35.9,29.64,North,356,4.0,16.0,100,0.00,,,0.00,VWS V14.01,2013-01-29 08:48:00,
2013-01-29 02:53:00,35.8,35.8,29.64,North,356,10.0,16.0,100,0.00,,,0.00,VWS V14.01,2013-01-29 08:53:00,
2013-01-29 02:58:00,35.8,35.8,29.64,North,352,11.0,16.0,100,0.00,,,0.00,VWS V14.01,2013-01-29 08:58:00,
2013-01-29 03:00:00,35.0,35.0,29.64,North,354,10.0,14.0,100,0.00,,,0.00,VWS V14.01,2013-01-29 09:00:00,
2013-01-29 03:03:00,35.8,35.8,29.62,NNW,333,12.0,17.0,100,0.00,,,0.00,VWS V14.01,2013-01-29 09:03:00,
2013-01-29 03:08:00,35.6,35.6,29.62,North,349,17.0,18.0,100,0.00,,,0.00,VWS V14.01,2013-01-29 09:08:00,
2013-01-29 03:13:00,35.6,35.6,29.62,North,0,10.0,18.0,100,0.00,,,0.00,VWS V14.01,2013-01-29 09:13:00,
2013-01-29 03:15:00,34.9,34.9,29.64,North,349,12.0,16.0,100,0.00,,,0.00,VWS V14.01,2013-01-29 09:15:00,
2013-01-29 03:18:00,35.5,35.5,29.62,NNW,330,10.0,16.0,100,0.00,,,0.00,VWS V14.01,2013-01-29 09:18:00,
2013-01-29 03:23:00,35.3,35.3,29.62,NNW,344,6.0,17.0,100,0.00,,,0.00,VWS V14.01,2013-01-29 09:23:00,
2013-01-29 03:28:00,35.2,35.2,29.62,North,359,3.0,17.0,100,0.00,,,0.00,VWS V14.01,2013-01-29 09:28:00,
2013-01-29 03:30:00,34.7,34.7,29.64,North,359,12.0,20.0,100,0.00,,,0.00,VWS V14.01,2013-01-29 09:30:00,
2013-01-29 03:33:00,35.2,35.2,29.63,North,1,12.0,12.0,100,0.00,,,0.00,VWS V14.01,2013-01-29 09:33:00,
2013-01-29 03:38:00,35.2,35.2,29.63,North,0,10.0,14.0,100,0.00,,,0.00,VWS V14.01,2013-01-29 09:38:00,
2013-01-29 03:43:00,35.0,35.0,29.63,North,354,6.0,14.0,100,0.00,,,0.00,VWS V14.01,2013-01-29 09:43:00,
2013-01-29 03:45:00,34.6,34.6,29.63,North,352,12.0,17.0,100,0.00,,,0.00,VWS V14.01,2013-01-29 09:45:00,
2013-01-29 03:48:00,35.0,35.0,29.65,North,359,7.0,13.0,100,0.00,,,0.00,VWS V14.01,2013-01-29 09:48:00,
2013-01-29 03:53:00,35.0,35.0,29.65,NW,326,4.0,13.0,100,0.00,,,0.00,VWS V14.01,2013-01-29 09:53:00,
2013-01-29 03:58:00,35.0,35.0,29.65,NNW,343,5.0,13.0,100,0.00,,,0.00,VWS V14.01,2013-01-29 09:58:00,
2013-01-29 04:00:00,34.4,34.4,29.64,North,359,13.0,18.0,100,0.00,,,0.00,VWS V14.01,2013-01-29 10:00:00,
2013-01-29 04:03:00,35.0,35.0,29.64,North,356,7.0,14.0,100,0.00,,,0.00,VWS V14.01,2013-01-29 10:03:00,
2013-01-29 04:08:00,35.0,35.0,29.64,North,349,10.0,14.0,100,0.00,,,0.00,VWS V14.01,2013-01-29 10:08:00,
2013-01-29 04:13:00,35.0,35.0,29.64,NNW,333,6.0,16.0,100,0.00,,,0.00,VWS V14.01,2013-01-29 10:13:00,
2013-01-29 04:15:00,34.1,34.1,29.64,North,359,11.0,17.0,100,0.00,,,0.00,VWS V14.01,2013-01-29 10:15:00,
2013-01-29 04:18:00,34.9,34.9,29.64,North,349,6.0,14.0,100,0.00,,,0.00,VWS V14.01,2013-01-29 10:18:00,
2013-01-29 04:23:00,34.9,34.9,29.64,NNW,346,14.0,20.0,100,0.00,,,0.00,VWS V14.01,2013-01-29 10:23:00,
2013-01-29 04:28:00,34.7,34.7,29.64,North,349,10.0,20.0,100,0.00,,,0.00,VWS V14.01,2013-01-29 10:28:00,
2013-01-29 04:30:00,34.1,34.1,29.64,North,359,10.0,17.0,100,0.00,,,0.00,VWS V14.01,2013-01-29 10:30:00,
2013-01-29 04:33:00,34.7,34.7,29.64,North,0,7.0,14.0,100,0.00,,,0.00,VWS V14.01,2013-01-29 10:33:00,
2013-01-29 04:38:00,34.7,34.7,29.64,NNW,335,5.0,15.0,100,0.00,,,0.00,VWS V14.01,2013-01-29 10:38:00,
2013-01-29 04:43:00,34.6,34.6,29.64,North,352,14.0,17.0,100,0.00,,,0.00,VWS V14.01,2013-01-29 10:43:00,
2013-01-29 04:45:00,34.0,34.0,29.63,North,359,5.0,16.0,100,0.00,,,0.00,VWS V14.01,2013-01-29 10:45:00,
2013-01-29 04:48:00,34.6,34.6,29.63,North,349,13.0,17.0,100,0.00,,,0.00,VWS V14.01,2013-01-29 10:48:00,
2013-01-29 04:53:00,34.4,34.4,29.63,North,349,10.0,18.0,100,0.00,,,0.00,VWS V14.01,2013-01-29 10:53:00,
2013-01-29 04:58:00,34.4,34.4,29.63,North,359,14.0,18.0,100,0.00,,,0.00,VWS V14.01,2013-01-29 10:58:00,
2013-01-29 05:00:00,34.0,34.0,29.63,NNW,339,11.0,12.0,100,0.00,,,0.00,VWS V14.01,2013-01-29 11:00:00,
2013-01-29 05:03:00,34.4,34.4,29.64,North,359,12.0,16.0,100,0.00,,,0.00,VWS V14.01,2013-01-29 11:03:00,
2013-01-29 05:08:00,34.3,34.3,29.64,North,356,7.0,17.0,100,0.00,,,0.00,VWS V14.01,2013-01-29 11:08:00,
2013-01-29 05:13:00,34.1,34.1,29.64,NNW,347,11.0,17.0,100,0.00,,,0.00,VWS V14.01,2013-01-29 11:13:00,
2013-01-29 05:15:00,33.8,33.8,29.64,North,359,5.0,15.0,100,0.00,,,0.00,VWS V14.01,2013-01-29 11:15:00,
2013-01-29 05:18:00,34.1,34.1,29.64,North,0,7.0,14.0,100,0.00,,,0.00,VWS V14.01,2013-01-29 11:18:00,
2013-01-29 05:23:00,34.1,34.1,29.64,North,359,8.0,17.0,100,0.00,,,0.00,VWS V14.01,2013-01-29 11:23:00,
2013-01-29 05:28:00,34.1,34.1,29.64,North,0,11.0,17.0,100,0.00,,,0.00,VWS V14.01,2013-01-29 11:28:00,
2013-01-29 05:30:00,33.7,33.7,29.63,NNE,14,7.0,16.0,100,0.00,,,0.00,VWS V14.01,2013-01-29 11:30:00,
2013-01-29 05:33:00,34.1,34.1,29.64,NNE,17,7.0,16.0,100,0.00,,,0.00,VWS V14.01,2013-01-29 11:33:00,
2013-01-29 05:38:00,34.1,34.1,29.64,NNW,337,8.0,16.0,100,0.00,,,0.00,VWS V14.01,2013-01-29 11:38:00,
2013-01-29 05:44:00,34.1,34.1,29.64,North,0,5.0,16.0,100,0.00,,,0.00,VWS V14.01,2013-01-29 11:44:00,
2013-01-29 05:45:00,33.7,33.7,29.65,NNW,340,8.0,12.0,100,0.00,,,0.00,VWS V14.01,2013-01-29 11:45:00,
2013-01-29 05:49:00,34.0,34.0,29.63,NNE,27,6.0,10.0,100,0.00,,,0.00,VWS V14.01,2013-01-29 11:49:00,
2013-01-29 05:54:00,34.0,34.0,29.63,NNW,336,5.0,10.0,100,0.00,,,0.00,VWS V14.01,2013-01-29 11:54:00,
2013-01-29 05:59:00,34.0,34.0,29.63,North,0,10.0,12.0,100,0.00,,,0.00,VWS V14.01,2013-01-29 11:59:00,
2013-01-29 06:00:00,33.8,33.8,29.67,North,349,8.0,11.0,100,0.00,,,0.00,VWS V14.01,2013-01-29 12:00:00,
2013-01-29 06:04:00,34.0,34.0,29.63,North,8,10.0,15.0,100,0.00,,,0.00,VWS V14.01,2013-01-29 12:04:00,
2013-01-29 06:09:00,34.0,34.0,29.63,NNW,344,10.0,15.0,100,0.00,,,0.00,VWS V14.01,2013-01-29 12:09:00,
2013-01-29 06:14:00,33.8,33.8,29.63,North,359,10.0,15.0,100,0.00,,,0.00,VWS V14.01,2013-01-29 12:14:00,
2013-01-29 06:15:00,33.8,33.8,29.68,North,0,9.0,16.0,100,0.00,,,0.00,VWS V14.01,2013-01-29 12:15:00,
2013-01-29 06:19:00,33.8,33.8,29.64,North,356,11.0,12.0,100,0.00,,,0.00,VWS V14.01,2013-01-29 12:19:00,
2013-01-29 06:24:00,33.8,33.8,29.64,NNW,339,7.0,16.0,100,0.00,,,0.00,VWS V14.01,2013-01-29 12:24:00,
2013-01-29 06:29:00,33.7,33.7,29.64,North,359,11.0,16.0,100,0.00,,,0.00,VWS V14.01,2013-01-29 12:29:00,
2013-01-29 06:30:00,33.7,33.7,29.68,North,354,3.0,12.0,100,0.00,,,0.00,VWS V14.01,2013-01-29 12:30:00,
2013-01-29 06:34:00,33.7,33.7,29.63,North,354,10.0,10.0,100,0.00,,,0.00,VWS V14.01,2013-01-29 12:34:00,
2013-01-29 06:39:00,33.7,33.7,29.63,North,4,6.0,12.0,100,0.00,,,0.00,VWS V14.01,2013-01-29 12:39:00,
2013-01-29 06:44:00,33.7,33.7,29.63,North,352,6.0,12.0,100,0.00,,,0.00,VWS V14.01,2013-01-29 12:44:00,
2013-01-29 06:45:00,33.7,33.7,29.69,NNW,344,6.0,10.0,100,0.00,,,0.00,VWS V14.01,2013-01-29 12:45:00,
2013-01-29 06:49:00,33.7,33.7,29.65,ENE,61,9.0,11.0,100,0.00,,,0.00,VWS V14.01,2013-01-29 12:49:00,
2013-01-29 06:54:00,33.7,33.7,29.65,North,353,5.0,11.0,100,0.00,,,0.00,VWS V14.01,2013-01-29 12:54:00,
2013-01-29 06:59:00,33.7,33.7,29.65,North,356,6.0,11.0,100,0.00,,,0.00,VWS V14.01,2013-01-29 12:59:00,
2013-01-29 07:00:00,33.4,33.4,29.69,North,359,6.0,12.0,100,0.00,,,0.00,VWS V14.01,2013-01-29 13:00:00,
2013-01-29 07:04:00,33.7,33.7,29.67,North,359,12.0,14.0,100,0.00,,,0.00,VWS V14.01,2013-01-29 13:04:00,
2013-01-29 07:09:00,33.8,33.8,29.67,North,0,6.0,16.0,100,0.00,,,0.00,VWS V14.01,2013-01-29 13:09:00,
2013-01-29 07:14:00,33.8,33.8,29.67,North,0,7.0,16.0,100,0.00,,,0.00,VWS V14.01,2013-01-29 13:14:00,
2013-01-29 07:15:00,33.4,33.4,29.69,NNW,343,10.0,12.0,100,0.00,,,0.00,VWS V14.01,2013-01-29 13:15:00,
2013-01-29 07:19:00,33.8,33.8,29.68,North,0,10.0,11.0,100,0.00,,,0.00,VWS V14.01,2013-01-29 13:19:00,
2013-01-29 07:24:00,33.8,33.8,29.68,North,359,8.0,12.0,100,0.00,,,0.00,VWS V14.01,2013-01-29 13:24:00,
2013-01-29 07:29:00,33.8,33.8,29.68,North,359,7.0,12.0,100,0.00,,,0.00,VWS V14.01,2013-01-29 13:29:00,
2013-01-29 07:30:00,33.4,33.4,29.69,North,0,2.0,11.0,100,0.00,,,0.00,VWS V14.01,2013-01-29 13:30:00,
2013-01-29 07:34:00,33.7,33.7,29.68,North,357,3.0,8.0,100,0.00,,,0.00,VWS V14.01,2013-01-29 13:34:00,
2013-01-29 07:39:00,33.7,33.7,29.68,North,1,5.0,10.0,100,0.00,,,0.00,VWS V14.01,2013-01-29 13:39:00,
2013-01-29 07:44:00,33.7,33.7,29.68,NNW,340,7.0,10.0,100,0.00,,,0.00,VWS V14.01,2013-01-29 13:44:00,
2013-01-29 07:45:00,33.4,33.4,29.70,North,356,4.0,8.0,100,0.00,,,0.00,VWS V14.01,2013-01-29 13:45:00,
2013-01-29 07:49:00,33.7,33.7,29.69,North,353,7.0,9.0,100,0.00,,,0.00,VWS V14.01,2013-01-29 13:49:00,
2013-01-29 07:54:00,33.5,33.5,29.69,North,359,7.0,11.0,100,0.00,,,0.00,VWS V14.01,2013-01-29 13:54:00,
2013-01-29 07:59:00,33.5,33.5,29.69,North,1,6.0,12.0,100,0.00,,,0.00,VWS V14.01,2013-01-29 13:59:00,
2013-01-29 08:00:00,33.4,33.4,29.69,North,0,6.0,10.0,100,0.00,,,0.00,VWS V14.01,2013-01-29 14:00:00,
2013-01-29 08:04:00,33.4,33.4,29.69,North,0,6.0,11.0,100,0.00,,,0.00,VWS V14.01,2013-01-29 14:04:00,
2013-01-29 08:09:00,33.4,33.4,29.69,North,359,9.0,11.0,100,0.00,,,0.00,VWS V14.01,2013-01-29 14:09:00,
2013-01-29 08:14:00,33.4,33.4,29.69,NNW,340,8.0,12.0,100,0.00,,,0.00,VWS V14.01,2013-01-29 14:14:00,
2013-01-29 08:15:00,33.5,33.5,29.68,North,359,6.0,11.0,100,0.00,,,0.00,VWS V14.01,2013-01-29 14:15:00,
2013-01-29 08:19:00,33.4,33.4,29.69,North,359,8.0,11.0,100,0.00,,,0.00,VWS V14.01,2013-01-29 14:19:00,
2013-01-29 08:24:00,33.4,33.4,29.69,North,357,3.0,11.0,100,0.00,,,0.00,VWS V14.01,2013-01-29 14:24:00,
2013-01-29 08:29:00,33.2,33.2,29.69,North,0,7.0,11.0,100,0.00,,,0.00,VWS V14.01,2013-01-29 14:29:00,
2013-01-29 08:30:00,33.5,33.5,29.67,North,359,8.0,11.0,100,0.00,,,0.00,VWS V14.01,2013-01-29 14:30:00,
2013-01-29 08:34:00,33.4,33.4,29.69,North,3,5.0,8.0,100,0.00,,,0.00,VWS V14.01,2013-01-29 14:34:00,
2013-01-29 08:39:00,33.4,33.4,29.69,NNW,340,7.0,8.0,100,0.00,,,0.00,VWS V14.01,2013-01-29 14:39:00,
2013-01-29 08:44:00,33.4,33.4,29.69,North,359,3.0,8.0,100,0.00,,,0.00,VWS V14.01,2013-01-29 14:44:00,
2013-01-29 08:45:00,33.5,33.5,29.67,North,359,7.0,10.0,100,0.00,,,0.00,VWS V14.01,2013-01-29 14:45:00,
2013-01-29 08:49:00,33.4,33.4,29.70,NNW,343,1.0,5.0,100,0.00,,,0.00,VWS V14.01,2013-01-29 14:49:00,
2013-01-29 08:54:00,33.4,33.4,29.70,NNW,342,5.0,6.0,100,0.00,,,0.00,VWS V14.01,2013-01-29 14:54:00,
2013-01-29 08:59:00,33.4,33.4,29.70,NNW,347,7.0,8.0,100,0.00,,,0.00,VWS V14.01,2013-01-29 14:59:00,
2013-01-29 09:00:00,33.7,33.7,29.67,North,359,9.0,11.0,100,0.00,,,0.00,VWS V14.01,2013-01-29 15:00:00,
2013-01-29 09:04:00,33.5,33.5,29.69,North,0,7.0,10.0,100,0.00,,,0.00,VWS V14.01,2013-01-29 15:04:00,
2013-01-29 09:09:00,33.5,33.5,29.69,North,359,7.0,10.0,100,0.00,,,0.00,VWS V14.01,2013-01-29 15:09:00,
2013-01-29 09:14:00,33.5,33.5,29.69,NNW,347,2.0,11.0,100,0.00,,,0.00,VWS V14.01,2013-01-29 15:14:00,
2013-01-29 09:15:00,33.8,33.8,29.68,North,349,3.0,12.0,100,0.00,,,0.00,VWS V14.01,2013-01-29 15:15:00,
2013-01-29 09:19:00,33.5,33.5,29.68,NNW,342,7.0,8.0,100,0.00,,,0.00,VWS V14.01,2013-01-29 15:19:00,
2013-01-29 09:24:00,33.5,33.5,29.68,North,350,7.0,11.0,100,0.00,,,0.00,VWS V14.01,2013-01-29 15:24:00,
2013-01-29 09:29:00,33.5,33.5,29.68,North,0,7.0,11.0,100,0.00,,,0.00,VWS V14.01,2013-01-29 15:29:00,
2013-01-29 09:34:00,33.5,33.5,29.67,North,0,6.0,9.0,100,0.00,,,0.00,VWS V14.01,2013-01-29 15:34:00,
2013-01-29 09:39:00,33.5,33.5,29.67,NNW,347,7.0,10.0,100,0.00,,,0.00,VWS V14.01,2013-01-29 15:39:00,
2013-01-29 09:44:00,33.5,33.5,29.67,North,0,6.0,10.0,100,0.00,,,0.00,VWS V14.01,2013-01-29 15:44:00,
2013-01-29 09:45:00,34.0,34.0,29.68,North,349,2.0,14.0,100,0.00,,,0.00,VWS V14.01,2013-01-29 15:45:00,
2013-01-29 09:49:00,33.5,33.5,29.67,NNW,343,9.0,11.0,100,0.00,,,0.00,VWS V14.01,2013-01-29 15:49:00,
2013-01-29 09:54:00,33.7,33.7,29.67,North,356,6.0,11.0,100,0.00,,,0.00,VWS V14.01,2013-01-29 15:54:00,
2013-01-29 09:59:00,33.7,33.7,29.67,North,359,8.0,11.0,100,0.00,,,0.00,VWS V14.01,2013-01-29 15:59:00,
2013-01-29 10:00:00,33.8,33.8,29.67,North,354,6.0,15.0,100,0.00,,,0.00,VWS V14.01,2013-01-29 16:00:00,
2013-01-29 10:04:00,33.7,33.7,29.67,North,350,10.0,11.0,100,0.00,,,0.00,VWS V14.01,2013-01-29 16:04:00,
2013-01-29 10:09:00,33.7,33.7,29.67,North,0,2.0,12.0,100,0.00,,,0.00,VWS V14.01,2013-01-29 16:09:00,
2013-01-29 10:14:00,33.8,33.8,29.67,NNW,336,1.0,12.0,100,0.00,,,0.00,VWS V14.01,2013-01-29 16:14:00,
2013-01-29 10:15:00,34.0,34.0,29.67,North,359,13.0,14.0,100,0.00,,,0.00,VWS V14.01,2013-01-29 16:15:00,
2013-01-29 10:19:00,33.8,33.8,29.68,North,350,2.0,7.0,100,0.00,,,0.00,VWS V14.01,2013-01-29 16:19:00,
2013-01-29 10:24:00,33.8,33.8,29.68,NNW,346,7.0,11.0,100,0.00,,,0.00,VWS V14.01,2013-01-29 16:24:00,
2013-01-29 10:29:00,33.8,33.8,29.68,North,353,6.0,12.0,100,0.00,,,0.00,VWS V14.01,2013-01-29 16:29:00,
2013-01-29 10:30:00,34.1,34.1,29.66,North,350,5.0,17.0,100,0.00,,,0.00,VWS V14.01,2013-01-29 16:30:00,
2013-01-29 10:34:00,33.8,33.8,29.67,North,359,10.0,14.0,100,0.00,,,0.00,VWS V14.01,2013-01-29 16:34:00,
2013-01-29 10:39:00,34.0,34.0,29.67,NNW,340,7.0,14.0,100,0.00,,,0.00,VWS V14.01,2013-01-29 16:39:00,
2013-01-29 10:44:00,34.0,34.0,29.67,NNW,346,2.0,14.0,100,0.00,,,0.00,VWS V14.01,2013-01-29 16:44:00,
2013-01-29 10:45:00,34.3,34.3,29.67,NNW,347,12.0,18.0,100,0.00,,,0.00,VWS V14.01,2013-01-29 16:45:00,
2013-01-29 10:49:00,34.0,34.0,29.68,North,357,7.0,10.0,100,0.00,,,0.00,VWS V14.01,2013-01-29 16:49:00,
2013-01-29 10:54:00,33.8,33.8,29.68,North,349,8.0,14.0,100,0.00,,,0.00,VWS V14.01,2013-01-29 16:54:00,
2013-01-29 10:59:00,33.8,33.8,29.68,North,350,12.0,15.0,100,0.00,,,0.00,VWS V14.01,2013-01-29 16:59:00,
2013-01-29 11:00:00,34.3,34.3,29.66,NNW,346,8.0,17.0,100,0.00,,,0.00,VWS V14.01,2013-01-29 17:00:00,
2013-01-29 11:04:00,33.8,33.8,29.67,North,359,5.0,13.0,100,0.00,,,0.00,VWS V14.01,2013-01-29 17:04:00,
2013-01-29 11:09:00,34.0,34.0,29.67,North,359,6.0,13.0,100,0.00,,,0.00,VWS V14.01,2013-01-29 17:09:00,
2013-01-29 11:14:00,34.0,34.0,29.67,North,0,9.0,13.0,100,0.00,,,0.00,VWS V14.01,2013-01-29 17:14:00,
2013-01-29 11:15:00,34.1,34.1,29.66,NNW,342,15.0,18.0,100,0.00,,,0.00,VWS V14.01,2013-01-29 17:15:00,
2013-01-29 11:19:00,34.0,34.0,29.67,North,0,7.0,13.0,100,0.00,,,0.00,VWS V14.01,2013-01-29 17:19:00,
2013-01-29 11:24:00,34.0,34.0,29.67,NNW,335,14.0,17.0,100,0.00,,,0.00,VWS V14.01,2013-01-29 17:24:00,
2013-01-29 11:29:00,34.0,34.0,29.67,North,359,5.0,17.0,100,0.00,,,0.00,VWS V14.01,2013-01-29 17:29:00,
2013-01-29 11:30:00,34.3,34.3,29.66,North,1,7.0,18.0,100,0.00,,,0.00,VWS V14.01,2013-01-29 17:30:00,
2013-01-29 11:34:00,34.0,34.0,29.66,North,359,15.0,18.0,100,0.00,,,0.00,VWS V14.01,2013-01-29 17:34:00,
2013-01-29 11:39:00,34.1,34.1,29.66,North,353,6.0,18.0,100,0.00,,,0.00,VWS V14.01,2013-01-29 17:39:00,
2013-01-29 11:44:00,34.1,34.1,29.66,North,354,8.0,18.0,100,0.00,,,0.00,VWS V14.01,2013-01-29 17:44:00,
2013-01-29 11:45:00,34.4,34.4,29.65,North,359,15.0,20.0,100,0.00,,,0.00,VWS V14.01,2013-01-29 17:45:00,
2013-01-29 11:49:00,34.3,34.3,29.67,North,356,2.0,12.0,100,0.00,,,0.00,VWS V14.01,2013-01-29 17:49:00,
2013-01-29 11:54:00,34.3,34.3,29.67,NNW,346,11.0,17.0,100,0.00,,,0.00,VWS V14.01,2013-01-29 17:54:00,
2013-01-29 11:59:00,34.3,34.3,29.67,NNE,17,12.0,17.0,100,0.00,,,0.00,VWS V14.01,2013-01-29 17:59:00,
2013-01-29 12:00:00,34.7,34.7,29.64,North,359,5.0,18.0,100,0.00,,,0.00,VWS V14.01,2013-01-29 18:00:00,
2013-01-29 12:04:00,34.3,34.3,29.66,North,359,17.0,18.0,100,0.00,,,0.00,VWS V14.01,2013-01-29 18:04:00,
2013-01-29 12:09:00,34.3,34.3,29.66,North,359,12.0,18.0,100,0.00,,,0.00,VWS V14.01,2013-01-29 18:09:00,
2013-01-29 12:14:00,34.1,34.1,29.66,North,359,12.0,18.0,100,0.00,,,0.00,VWS V14.01,2013-01-29 18:14:00,
2013-01-29 12:15:00,35.0,35.0,29.64,North,1,10.0,16.0,100,0.00,,,0.00,VWS V14.01,2013-01-29 18:15:00,
2013-01-29 12:19:00,34.3,34.3,29.66,North,352,14.0,17.0,100,0.00,,,0.00,VWS V14.01,2013-01-29 18:19:00,
2013-01-29 12:24:00,34.3,34.3,29.66,NNW,344,12.0,17.0,100,0.00,,,0.00,VWS V14.01,2013-01-29 18:24:00,
2013-01-29 12:29:00,34.3,34.3,29.66,North,0,10.0,17.0,100,0.00,,,0.00,VWS V14.01,2013-01-29 18:29:00,
2013-01-29 12:30:00,35.2,35.2,29.64,NNE,24,6.0,13.0,100,0.00,,,0.00,VWS V14.01,2013-01-29 18:30:00,
2013-01-29 12:34:00,34.3,34.3,29.66,NNE,14,8.0,16.0,100,0.00,,,0.00,VWS V14.01,2013-01-29 18:34:00,
2013-01-29 12:39:00,34.3,34.3,29.66,North,0,16.0,20.0,100,0.00,,,0.00,VWS V14.01,2013-01-29 18:39:00,
2013-01-29 12:44:00,34.4,34.4,29.66,North,0,13.0,20.0,100,0.00,,,0.00,VWS V14.01,2013-01-29 18:44:00,
2013-01-29 12:45:00,35.3,35.3,29.64,NNE,14,6.0,14.0,100,0.00,,,0.00,VWS V14.01,2013-01-29 18:45:00,
2013-01-29 12:49:00,34.4,34.4,29.65,North,357,17.0,18.0,100,0.00,,,0.00,VWS V14.01,2013-01-29 18:49:00,
2013-01-29 12:54:00,34.4,34.4,29.65,North,11,7.0,18.0,100,0.00,,,0.00,VWS V14.01,2013-01-29 18:54:00,
2013-01-29 12:59:00,34.6,34.6,29.65,North,349,12.0,18.0,100,0.00,,,0.00,VWS V14.01,2013-01-29 18:59:00,
2013-01-29 13:00:00,35.2,35.2,29.64,North,359,16.0,19.0,100,0.00,,,0.00,VWS V14.01,2013-01-29 19:00:00,
2013-01-29 13:04:00,34.7,34.7,29.64,North,0,12.0,13.0,100,0.00,,,0.00,VWS V14.01,2013-01-29 19:04:00,
2013-01-29 13:09:00,34.9,34.9,29.64,North,359,16.0,16.0,100,0.00,,,0.00,VWS V14.01,2013-01-29 19:09:00,
2013-01-29 13:14:00,34.9,34.9,29.64,NNE,23,6.0,16.0,100,0.00,,,0.00,VWS V14.01,2013-01-29 19:14:00,
2013-01-29 13:15:00,35.0,35.0,29.63,North,359,16.0,17.0,100,0.00,,,0.00,VWS V14.01,2013-01-29 19:15:00,
2013-01-29 13:19:00,35.0,35.0,29.64,NE,42,7.0,13.0,100,0.00,,,0.00,VWS V14.01,2013-01-29 19:19:00,
2013-01-29 13:24:00,35.2,35.2,29.64,NNW,347,3.0,13.0,100,0.00,,,0.00,VWS V14.01,2013-01-29 19:24:00,
2013-01-29 13:29:00,35.2,35.2,29.64,North,3,5.0,13.0,100,0.00,,,0.00,VWS V14.01,2013-01-29 19:29:00,
2013-01-29 13:30:00,34.6,34.6,29.62,NNE,14,11.0,17.0,100,0.00,,,0.00,VWS V14.01,2013-01-29 19:30:00,
2013-01-29 13:34:00,35.3,35.3,29.64,North,10,5.0,12.0,100,0.00,,,0.00,VWS V14.01,2013-01-29 19:34:00,
2013-01-29 13:39:00,35.3,35.3,29.64,North,8,7.0,12.0,100,0.00,,,0.00,VWS V14.01,2013-01-29 19:39:00,
2013-01-29 13:44:00,35.3,35.3,29.64,North,1,8.0,12.0,100,0.00,,,0.00,VWS V14.01,2013-01-29 19:44:00,
2013-01-29 13:45:00,34.0,34.0,29.62,NNE,17,6.0,14.0,100,0.00,,,0.00,VWS V14.01,2013-01-29 19:45:00,
2013-01-29 13:49:00,35.3,35.3,29.64,North,359,12.0,14.0,100,0.00,,,0.00,VWS V14.01,2013-01-29 19:49:00,
2013-01-29 13:54:00,35.3,35.3,29.64,NNE,14,9.0,19.0,100,0.00,,,0.00,VWS V14.01,2013-01-29 19:54:00,
2013-01-29 13:57:00,35.3,35.3,29.64,North,359,14.0,19.0,100,0.00,,,0.00,VWS V14.01,2013-01-29 19:57:00,
2013-01-29 14:00:00,33.8,33.8,29.61,North,4,5.0,9.0,100,0.00,,,0.00,VWS V14.01,2013-01-29 20:00:00,
2013-01-29 14:02:00,35.2,35.2,29.64,North,359,14.0,17.0,100,0.00,,,0.00,VWS V14.01,2013-01-29 20:02:00,
2013-01-29 14:07:00,35.2,35.2,29.64,North,0,7.0,17.0,100,0.00,,,0.00,VWS V14.01,2013-01-29 20:07:00,
2013-01-29 14:12:00,35.2,35.2,29.64,North,352,16.0,17.0,100,0.00,,,0.00,VWS V14.01,2013-01-29 20:12:00,
2013-01-29 14:15:00,34.0,34.0,29.61,NNE,18,7.0,11.0,100,0.00,,,0.00,VWS V14.01,2013-01-29 20:15:00,
2013-01-29 14:17:00,35.0,35.0,29.63,NNW,347,12.0,17.0,100,0.00,,,0.00,VWS V14.01,2013-01-29 20:17:00,
2013-01-29 14:22:00,35.0,35.0,29.63,North,3,13.0,17.0,100,0.00,,,0.00,VWS V14.01,2013-01-29 20:22:00,
2013-01-29 14:27:00,34.9,34.9,29.63,NNE,24,8.0,17.0,100,0.00,,,0.00,VWS V14.01,2013-01-29 20:27:00,
2013-01-29 14:30:00,33.8,33.8,29.62,NNE,20,3.0,11.0,100,0.00,,,0.00,VWS V14.01,2013-01-29 20:30:00,
2013-01-29 14:32:00,34.6,34.6,29.62,NNE,16,10.0,12.0,100,0.00,,,0.00,VWS V14.01,2013-01-29 20:32:00,
2013-01-29 14:37:00,34.3,34.3,29.62,North,0,10.0,14.0,100,0.00,,,0.00,VWS V14.01,2013-01-29 20:37:00,
2013-01-29 14:42:00,34.1,34.1,29.62,North,359,7.0,14.0,100,0.00,,,0.00,VWS V14.01,2013-01-29 20:42:00,
2013-01-29 14:45:00,34.1,34.1,29.65,North,7,3.0,11.0,100,0.00,,,0.00,VWS V14.01,2013-01-29 20:45:00,
2013-01-29 14:47:00,34.0,34.0,29.62,NNE,18,4.0,8.0,100,0.00,,,0.00,VWS V14.01,2013-01-29 20:47:00,
2013-01-29 14:52:00,34.0,34.0,29.62,North,359,9.0,9.0,100,0.00,,,0.00,VWS V14.01,2013-01-29 20:52:00,
2013-01-29 14:57:00,33.8,33.8,29.62,NNW,346,6.0,9.0,100,0.00,,,0.00,VWS V14.01,2013-01-29 20:57:00,
2013-01-29 15:00:00,34.3,34.3,29.65,North,7,7.0,10.0,100,0.00,,,0.00,VWS V14.01,2013-01-29 21:00:00,
2013-01-29 15:02:00,33.8,33.8,29.61,North,359,6.0,7.0,100,0.00,,,0.00,VWS V14.01,2013-01-29 21:02:00,
2013-01-29 15:07:00,33.8,33.8,29.61,North,0,7.0,11.0,100,0.00,,,0.00,VWS V14.01,2013-01-29 21:07:00,
2013-01-29 15:12:00,33.8,33.8,29.61,North,3,8.0,11.0,100,0.00,,,0.00,VWS V14.01,2013-01-29 21:12:00,
2013-01-29 15:15:00,34.6,34.6,29.65,North,0,7.0,14.0,100,0.00,,,0.00,VWS V14.01,2013-01-29 21:15:00,
2013-01-29 15:17:00,34.0,34.0,29.61,North,359,3.0,9.0,100,0.00,,,0.00,VWS V14.01,2013-01-29 21:17:00,
2013-01-29 15:22:00,34.0,34.0,29.61,NNE,13,7.0,11.0,100,0.00,,,0.00,VWS V14.01,2013-01-29 21:22:00,
2013-01-29 15:27:00,34.0,34.0,29.61,North,0,5.0,11.0,100,0.00,,,0.00,VWS V14.01,2013-01-29 21:27:00,
2013-01-29 15:30:00,34.3,34.3,29.65,North,10,5.0,14.0,100,0.00,,,0.00,VWS V14.01,2013-01-29 21:30:00,
2013-01-29 15:32:00,34.0,34.0,29.62,NNW,343,5.0,6.0,100,0.00,,,0.00,VWS V14.01,2013-01-29 21:32:00,
2013-01-29 15:37:00,34.0,34.0,29.62,NNE,20,4.0,11.0,100,0.00,,,0.00,VWS V14.01,2013-01-29 21:37:00,
2013-01-29 15:42:00,34.0,34.0,29.62,NNE,16,4.0,11.0,100,0.00,,,0.00,VWS V14.01,2013-01-29 21:42:00,
2013-01-29 15:45:00,34.1,34.1,29.66,North,3,2.0,12.0,100,0.00,,,0.00,VWS V14.01,2013-01-29 21:45:00,
2013-01-29 15:47:00,34.1,34.1,29.65,North,6,4.0,5.0,100,0.00,,,0.00,VWS V14.01,2013-01-29 21:47:00,
2013-01-29 15:52:00,34.1,34.1,29.65,North,3,5.0,7.0,100,0.00,,,0.00,VWS V14.01,2013-01-29 21:52:00,
2013-01-29 15:57:00,34.1,34.1,29.65,North,1,5.0,8.0,100,0.00,,,0.00,VWS V14.01,2013-01-29 21:57:00,
2013-01-29 16:00:00,33.5,33.5,29.67,NNE,27,10.0,17.0,100,0.00,,,0.00,VWS V14.01,2013-01-29 22:00:00,
2013-01-29 16:02:00,34.3,34.3,29.65,North,1,10.0,10.0,100,0.00,,,0.00,VWS V14.01,2013-01-29 22:02:00,
2013-01-29 16:07:00,34.4,34.4,29.65,North,0,5.0,12.0,100,0.00,,,0.00,VWS V14.01,2013-01-29 22:07:00,
2013-01-29 16:12:00,34.4,34.4,29.65,NNW,342,10.0,12.0,100,0.00,,,0.00,VWS V14.01,2013-01-29 22:12:00,
2013-01-29 16:15:00,33.1,33.1,29.68,NNE,20,10.0,18.0,100,0.00,,,0.00,VWS V14.01,2013-01-29 22:15:00,
2013-01-29 16:17:00,34.4,34.4,29.65,North,0,6.0,9.0,100,0.00,,,0.00,VWS V14.01,2013-01-29 22:17:00,
2013-01-29 16:22:00,34.3,34.3,29.65,North,0,7.0,14.0,100,0.00,,,0.00,VWS V14.01,2013-01-29 22:22:00,
2013-01-29 16:27:00,34.3,34.3,29.65,North,359,7.0,14.0,100,0.00,,,0.00,VWS V14.01,2013-01-29 22:27:00,
2013-01-29 16:30:00,32.9,32.9,29.66,North,8,6.0,13.0,100,0.00,,,0.00,VWS V14.01,2013-01-29 22:30:00,
2013-01-29 16:32:00,34.3,34.3,29.65,NNE,17,5.0,10.0,100,0.00,,,0.00,VWS V14.01,2013-01-29 22:32:00,
2013-01-29 16:37:00,34.3,34.3,29.65,North,359,10.0,12.0,100,0.00,,,0.00,VWS V14.01,2013-01-29 22:37:00,
2013-01-29 16:42:00,34.1,34.1,29.65,North,0,5.0,12.0,100,0.00,,,0.00,VWS V14.01,2013-01-29 22:42:00,
2013-01-29 16:45:00,32.9,32.9,29.67,North,11,2.0,12.0,100,0.00,,,0.00,VWS V14.01,2013-01-29 22:45:00,
2013-01-29 16:47:00,34.1,34.1,29.66,North,6,5.0,7.0,100,0.00,,,0.00,VWS V14.01,2013-01-29 22:47:00,
2013-01-29 16:52:00,34.1,34.1,29.66,North,352,11.0,15.0,100,0.00,,,0.00,VWS V14.01,2013-01-29 22:52:00,
2013-01-29 16:57:00,34.0,34.0,29.66,NNE,17,6.0,17.0,100,0.00,,,0.00,VWS V14.01,2013-01-29 22:57:00,
2013-01-29 17:00:00,33.2,33.2,29.67,North,359,6.0,10.0,100,0.00,,,0.00,VWS V14.01,2013-01-29 23:00:00,
2013-01-29 17:02:00,33.4,33.4,29.67,NE,37,7.0,10.0,100,0.00,,,0.00,VWS V14.01,2013-01-29 23:02:00,
2013-01-29 17:07:00,33.1,33.1,29.67,NNE,18,7.0,10.0,100,0.00,,,0.00,VWS V14.01,2013-01-29 23:07:00,
2013-01-29 17:12:00,33.2,33.2,29.67,NE,47,9.0,10.0,100,0.00,,,0.00,VWS V14.01,2013-01-29 23:12:00,
2013-01-29 17:15:00,33.5,33.5,29.67,North,0,3.0,8.0,100,0.00,,,0.00,VWS V14.01,2013-01-29 23:15:00,
2013-01-29 17:17:00,33.1,33.1,29.68,NNE,21,5.0,10.0,100,0.00,,,0.00,VWS V14.01,2013-01-29 23:17:00,
2013-01-29 17:22:00,33.1,33.1,29.68,North,11,6.0,10.0,100,0.00,,,0.00,VWS V14.01,2013-01-29 23:22:00,
2013-01-29 17:27:00,33.1,33.1,29.68,North,7,7.0,13.0,100,0.00,,,0.00,VWS V14.01,2013-01-29 23:27:00,
2013-01-29 17:30:00,33.5,33.5,29.69,North,359,5.0,9.0,100,0.00,,,0.00,VWS V14.01,2013-01-29 23:30:00,
2013-01-29 17:32:00,32.9,32.9,29.66,North,359,7.0,8.0,100,0.00,,,0.00,VWS V14.01,2013-01-29 23:32:00,
2013-01-29 17:37:00,32.9,32.9,29.66,North,10,5.0,10.0,100,0.00,,,0.00,VWS V14.01,2013-01-29 23:37:00,
2013-01-29 17:42:00,32.9,32.9,29.66,North,359,7.0,12.0,100,0.00,,,0.00,VWS V14.01,2013-01-29 23:42:00,
2013-01-29 17:45:00,33.8,33.8,29.70,NNW,347,7.0,11.0,100,0.00,,,0.00,VWS V14.01,2013-01-29 23:45:00,
2013-01-29 17:47:00,33.1,33.1,29.67,North,7,5.0,7.0,100,0.00,,,0.00,VWS V14.01,2013-01-29 23:47:00,
2013-01-29 17:52:00,33.1,33.1,29.67,North,0,5.0,10.0,100,0.00,,,0.00,VWS V14.01,2013-01-29 23:52:00,
2013-01-29 17:57:00,33.1,33.1,29.67,North,350,5.0,10.0,100,0.00,,,0.00,VWS V14.01,2013-01-29 23:57:00,
2013-01-29 18:00:00,34.1,34.1,29.70,North,353,8.0,12.0,100,0.00,,,0.00,VWS V14.01,2013-01-30 00:00:00,
2013-01-29 18:02:00,33.2,33.2,29.67,North,8,7.0,7.0,100,0.00,,,0.00,VWS V14.01,2013-01-30 00:02:00,
2013-01-29 18:07:00,33.4,33.4,29.67,North,356,5.0,8.0,100,0.00,,,0.00,VWS V14.01,2013-01-30 00:07:00,
2013-01-29 18:12:00,33.4,33.4,29.67,North,0,2.0,8.0,100,0.00,,,0.00,VWS V14.01,2013-01-30 00:12:00,
2013-01-29 18:15:00,34.3,34.3,29.72,North,0,8.0,16.0,100,0.00,,,0.00,VWS V14.01,2013-01-30 00:15:00,
2013-01-29 18:17:00,33.4,33.4,29.67,NNW,347,2.0,5.0,100,0.00,,,0.00,VWS V14.01,2013-01-30 00:17:00,
2013-01-29 18:22:00,33.5,33.5,29.67,North,0,7.0,9.0,100,0.00,,,0.00,VWS V14.01,2013-01-30 00:22:00,
2013-01-29 18:27:00,33.5,33.5,29.67,NNW,347,3.0,9.0,100,0.00,,,0.00,VWS V14.01,2013-01-30 00:27:00,
2013-01-29 18:30:00,34.3,34.3,29.72,North,4,8.0,19.0,100,0.00,,,0.00,VWS V14.01,2013-01-30 00:30:00,
2013-01-29 18:32:00,33.5,33.5,29.69,North,359,7.0,7.0,100,0.00,,,0.00,VWS V14.01,2013-01-30 00:32:00,
2013-01-29 18:37:00,33.5,33.5,29.69,North,359,10.0,10.0,100,0.00,,,0.00,VWS V14.01,2013-01-30 00:37:00,
2013-01-29 18:42:00,33.8,33.8,29.69,North,359,6.0,11.0,100,0.00,,,0.00,VWS V14.01,2013-01-30 00:42:00,
2013-01-29 18:45:00,34.1,34.1,29.73,North,359,12.0,17.0,100,0.00,,,0.00,VWS V14.01,2013-01-30 00:45:00,
2013-01-29 18:47:00,33.8,33.8,29.70,North,359,7.0,8.0,100,0.00,,,0.00,VWS V14.01,2013-01-30 00:47:00,
2013-01-29 18:52:00,34.0,34.0,29.70,North,359,7.0,11.0,100,0.00,,,0.00,VWS V14.01,2013-01-30 00:52:00,
2013-01-29 18:57:00,34.0,34.0,29.70,NNW,346,10.0,11.0,100,0.00,,,0.00,VWS V14.01,2013-01-30 00:57:00,
2013-01-29 19:00:00,33.7,33.7,29.73,NNE,23,7.0,14.0,100,0.00,,,0.00,VWS V14.01,2013-01-30 01:00:00,
2013-01-29 19:02:00,34.1,34.1,29.70,North,356,11.0,11.0,100,0.00,,,0.00,VWS V14.01,2013-01-30 01:02:00,
2013-01-29 19:07:00,34.3,34.3,29.70,North,356,8.0,16.0,100,0.00,,,0.00,VWS V14.01,2013-01-30 01:07:00,
2013-01-29 19:12:00,34.3,34.3,29.70,NNW,346,11.0,16.0,100,0.00,,,0.00,VWS V14.01,2013-01-30 01:12:00,
2013-01-29 19:15:00,33.4,33.4,29.73,North,350,7.0,14.0,100,0.00,,,0.00,VWS V14.01,2013-01-30 01:15:00,
2013-01-29 19:17:00,34.3,34.3,29.72,North,353,6.0,14.0,100,0.00,,,0.00,VWS V14.01,2013-01-30 01:17:00,
2013-01-29 19:22:00,34.4,34.4,29.72,North,359,11.0,17.0,100,0.00,,,0.00,VWS V14.01,2013-01-30 01:22:00,
2013-01-29 19:27:00,34.3,34.3,29.72,NNW,347,7.0,19.0,100,0.00,,,0.00,VWS V14.01,2013-01-30 01:27:00,
2013-01-29 19:30:00,33.4,33.4,29.73,North,359,17.0,19.0,100,0.00,,,0.00,VWS V14.01,2013-01-30 01:30:00,
2013-01-29 19:32:00,34.3,34.3,29.72,NNW,347,11.0,12.0,100,0.00,,,0.00,VWS V14.01,2013-01-30 01:32:00,
2013-01-29 19:37:00,34.1,34.1,29.72,North,356,12.0,14.0,100,0.00,,,0.00,VWS V14.01,2013-01-30 01:37:00,
2013-01-29 19:42:00,34.1,34.1,29.72,North,359,13.0,17.0,100,0.00,,,0.00,VWS V14.01,2013-01-30 01:42:00,
2013-01-29 19:45:00,33.2,33.2,29.73,North,349,17.0,22.0,100,0.00,,,0.00,VWS V14.01,2013-01-30 01:45:00,
2013-01-29 19:47:00,34.1,34.1,29.73,NNW,347,14.0,14.0,100,0.00,,,0.00,VWS V14.01,2013-01-30 01:47:00,
2013-01-29 19:52:00,34.0,34.0,29.73,NNE,28,6.0,14.0,100,0.00,,,0.00,VWS V14.01,2013-01-30 01:52:00,
2013-01-29 19:57:00,33.8,33.8,29.73,North,349,6.0,14.0,100,0.00,,,0.00,VWS V14.01,2013-01-30 01:57:00,
2013-01-29 20:00:00,32.8,32.8,29.74,North,349,15.0,24.0,100,0.00,,,0.00,VWS V14.01,2013-01-30 02:00:00,
2013-01-29 20:02:00,33.7,33.7,29.73,NNE,13,6.0,14.0,100,0.00,,,0.00,VWS V14.01,2013-01-30 02:02:00,
2013-01-29 20:07:00,33.7,33.7,29.73,North,7,5.0,14.0,100,0.00,,,0.00,VWS V14.01,2013-01-30 02:07:00,
2013-01-29 20:12:00,33.5,33.5,29.73,North,11,6.0,14.0,100,0.00,,,0.00,VWS V14.01,2013-01-30 02:12:00,
2013-01-29 20:15:00,32.1,32.1,29.74,North,359,18.0,20.0,100,0.00,,,0.00,VWS V14.01,2013-01-30 02:15:00,
2013-01-29 20:17:00,33.4,33.4,29.73,North,349,12.0,12.0,100,0.00,,,0.00,VWS V14.01,2013-01-30 02:17:00,
2013-01-29 20:22:00,33.4,33.4,29.73,North,359,12.0,14.0,100,0.00,,,0.00,VWS V14.01,2013-01-30 02:22:00,
2013-01-29 20:27:00,33.4,33.4,29.73,North,359,12.0,17.0,100,0.00,,,0.00,VWS V14.01,2013-01-30 02:27:00,
2013-01-29 20:30:00,31.6,31.6,29.75,North,3,10.0,21.0,100,0.00,,,0.00,VWS V14.01,2013-01-30 02:30:00,
2013-01-29 20:32:00,33.4,33.4,29.73,North,359,18.0,18.0,100,0.00,,,0.00,VWS V14.01,2013-01-30 02:32:00,
2013-01-29 20:37:00,33.4,33.4,29.73,North,349,15.0,21.0,100,0.00,,,0.00,VWS V14.01,2013-01-30 02:37:00,
2013-01-29 20:42:00,33.4,33.4,29.73,North,359,17.0,21.0,100,0.00,,,0.00,VWS V14.01,2013-01-30 02:42:00,
2013-01-29 20:45:00,31.6,31.6,29.75,North,0,7.0,19.0,100,0.00,,,0.00,VWS V14.01,2013-01-30 02:45:00,
2013-01-29 20:47:00,33.2,33.2,29.73,North,350,17.0,24.0,100,0.00,,,0.00,VWS V14.01,2013-01-30 02:47:00,
2013-01-29 20:52:00,32.9,32.9,29.73,North,3,13.0,24.0,100,0.00,,,0.00,VWS V14.01,2013-01-30 02:52:00,
2013-01-29 20:57:00,32.9,32.9,29.73,North,357,18.0,24.0,100,0.00,,,0.00,VWS V14.01,2013-01-30 02:57:00,
2013-01-29 21:00:00,31.5,31.5,29.75,North,354,13.0,15.0,100,0.00,,,0.00,VWS V14.01,2013-01-30 03:00:00,
2013-01-29 21:02:00,32.8,32.8,29.74,North,359,11.0,17.0,100,0.00,,,0.00,VWS V14.01,2013-01-30 03:02:00,
2013-01-29 21:07:00,32.5,32.5,29.74,North,359,20.0,20.0,100,0.00,,,0.00,VWS V14.01,2013-01-30 03:07:00,
2013-01-29 21:12:00,32.2,32.2,29.74,North,353,14.0,20.0,100,0.00,,,0.00,VWS V14.01,2013-01-30 03:12:00,
2013-01-29 21:15:00,31.6,31.6,29.75,NNW,346,17.0,18.0,100,0.00,,,0.00,VWS V14.01,2013-01-30 03:15:00,
2013-01-29 21:17:00,32.1,32.1,29.74,NNE,28,14.0,19.0,100,0.00,,,0.00,VWS V14.01,2013-01-30 03:17:00,
2013-01-29 21:22:00,31.8,31.8,29.74,North,359,14.0,21.0,100,0.00,,,0.00,VWS V14.01,2013-01-30 03:22:00,
2013-01-29 21:27:00,31.8,31.8,29.74,North,359,18.0,21.0,100,0.00,,,0.00,VWS V14.01,2013-01-30 03:27:00,
2013-01-29 21:30:00,31.5,30.0,29.76,North,359,19.0,22.0,94,0.00,,,0.00,VWS V14.01,2013-01-30 03:30:00,
2013-01-29 21:32:00,31.6,31.6,29.75,North,359,18.0,19.0,100,0.00,,,0.00,VWS V14.01,2013-01-30 03:32:00,
2013-01-29 21:37:00,31.5,31.5,29.75,North,11,7.0,19.0,100,0.00,,,0.00,VWS V14.01,2013-01-30 03:37:00,
2013-01-29 21:42:00,31.6,31.6,29.75,North,8,7.0,19.0,100,0.00,,,0.00,VWS V14.01,2013-01-30 03:42:00,
2013-01-29 21:45:00,30.7,30.2,29.76,North,353,17.0,20.0,98,0.00,,,0.00,VWS V14.01,2013-01-30 03:45:00,
2013-01-29 21:47:00,31.6,31.6,29.75,North,359,11.0,11.0,100,0.00,,,0.00,VWS V14.01,2013-01-30 03:47:00,
2013-01-29 21:52:00,31.5,31.5,29.75,NNW,344,11.0,15.0,100,0.00,,,0.00,VWS V14.01,2013-01-30 03:52:00,
2013-01-29 21:57:00,31.5,31.5,29.75,North,359,11.0,15.0,100,0.00,,,0.00,VWS V14.01,2013-01-30 03:57:00,
2013-01-29 22:00:00,30.3,29.8,29.77,North,353,7.0,19.0,98,0.00,,,0.00,VWS V14.01,2013-01-30 04:00:00,
2013-01-29 22:02:00,31.5,31.5,29.75,North,359,12.0,13.0,100,0.00,,,0.00,VWS V14.01,2013-01-30 04:02:00,
2013-01-29 22:07:00,31.5,31.5,29.75,NNW,346,9.0,16.0,100,0.00,,,0.00,VWS V14.01,2013-01-30 04:07:00,
2013-01-29 22:12:00,31.6,31.6,29.75,North,0,13.0,17.0,100,0.00,,,0.00,VWS V14.01,2013-01-30 04:12:00,
2013-01-29 22:15:00,29.8,29.8,29.77,North,359,14.0,21.0,100,0.00,,,0.00,VWS V14.01,2013-01-30 04:15:00,
2013-01-29 22:17:00,31.6,31.6,29.75,North,356,15.0,22.0,100,0.00,,,0.00,VWS V14.01,2013-01-30 04:17:00,
2013-01-29 22:22:00,31.6,30.6,29.75,North,0,10.0,22.0,96,0.00,,,0.00,VWS V14.01,2013-01-30 04:22:00,
2013-01-29 22:27:00,31.5,30.0,29.75,North,354,7.0,22.0,94,0.00,,,0.00,VWS V14.01,2013-01-30 04:27:00,
2013-01-29 22:30:00,29.3,29.3,29.77,North,353,12.0,21.0,100,0.00,,,0.00,VWS V14.01,2013-01-30 04:30:00,
2013-01-29 22:32:00,31.3,29.8,29.76,North,349,18.0,19.0,94,0.00,,,0.00,VWS V14.01,2013-01-30 04:32:00,
2013-01-29 22:37:00,31.2,30.2,29.76,North,359,17.0,20.0,96,0.00,,,0.00,VWS V14.01,2013-01-30 04:37:00,
2013-01-29 22:42:00,30.9,29.9,29.76,North,356,18.0,20.0,96,0.00,,,0.00,VWS V14.01,2013-01-30 04:42:00,
2013-01-29 22:45:00,28.7,28.7,29.78,North,350,6.0,19.0,100,0.00,,,0.00,VWS V14.01,2013-01-30 04:45:00,
2013-01-29 22:47:00,30.7,30.0,29.76,North,359,19.0,19.0,97,0.00,,,0.00,VWS V14.01,2013-01-30 04:47:00,
2013-01-29 22:52:00,30.6,29.9,29.76,North,359,10.0,19.0,97,0.00,,,0.00,VWS V14.01,2013-01-30 04:52:00,
2013-01-29 22:57:00,30.3,30.3,29.76,North,353,7.0,19.0,100,0.00,,,0.00,VWS V14.01,2013-01-30 04:57:00,
2013-01-29 23:00:00,30.3,30.3,29.76,North,356,17.0,19.0,100,0.00,,,0.00,VWS V14.01,2013-01-30 05:00:00,
2013-01-29 23:01:00,30.3,30.3,29.77,North,357,12.0,19.0,100,0.00,,,0.00,VWS V14.01,2013-01-30 05:01:00,
2013-01-29 23:03:00,30.3,30.0,29.77,North,359,10.0,16.0,99,0.00,,,0.00,VWS V14.01,2013-01-30 05:03:00,
2013-01-29 23:08:00,30.0,30.0,29.77,NNW,344,10.0,17.0,100,0.00,,,0.00,VWS V14.01,2013-01-30 05:08:00,
2013-01-29 23:13:00,29.8,29.5,29.77,North,359,10.0,19.0,99,0.00,,,0.00,VWS V14.01,2013-01-30 05:13:00,
2013-01-29 23:15:00,28.5,28.5,29.78,North,359,22.0,25.0,100,0.00,,,0.00,VWS V14.01,2013-01-30 05:15:00,
2013-01-29 23:18:00,29.7,29.7,29.77,NNW,339,4.0,18.0,100,0.00,,,0.00,VWS V14.01,2013-01-30 05:18:00,
2013-01-29 23:23:00,29.5,29.5,29.77,North,354,15.0,21.0,100,0.00,,,0.00,VWS V14.01,2013-01-30 05:23:00,
2013-01-29 23:28:00,29.3,29.3,29.77,North,356,17.0,21.0,100,0.00,,,0.00,VWS V14.01,2013-01-30 05:28:00,
2013-01-29 23:30:00,28.5,28.5,29.78,North,359,17.0,26.0,100,0.00,,,0.00,VWS V14.01,2013-01-30 05:30:00,
2013-01-29 23:33:00,29.1,29.1,29.77,North,356,11.0,16.0,100,0.00,,,0.00,VWS V14.01,2013-01-30 05:33:00,
2013-01-29 23:38:00,29.0,29.0,29.77,North,352,10.0,19.0,100,0.00,,,0.00,VWS V14.01,2013-01-30 05:38:00,
2013-01-29 23:43:00,28.8,28.8,29.77,North,353,12.0,19.0,100,0.00,,,0.00,VWS V14.01,2013-01-30 05:43:00,
2013-01-29 23:45:00,28.8,28.8,29.78,North,359,18.0,26.0,100,0.00,,,0.00,VWS V14.01,2013-01-30 05:45:00,
2013-01-29 23:48:00,28.7,28.7,29.78,North,4,8.0,16.0,100,0.00,,,0.00,VWS V14.01,2013-01-30 05:48:00,
2013-01-29 23:53:00,28.5,28.5,29.78,North,349,17.0,20.0,100,0.00,,,0.00,VWS V14.01,2013-01-30 05:53:00,
2013-01-29 23:58:00,28.5,28.5,29.78,North,0,20.0,20.0,100,0.00,,,0.00,VWS V14.01,2013-01-30 05:58:00,